Time;durP1;ratioP1;P1;durP2;ratioP2;P2;SDS_P1;SDS_P2;PMS_P1;PMS_P2;Temp;Humidity;BMP_temperature;BMP_pressure;BME280_temperature;BME280_humidity;BME280_pressure;Samples;Min_cycle;Max_cycle;Signal;HPM_P1;HPM_P2
2021/04/19 00:23:28;;;;;;;24.03;19.40;;;8.70;93.90;;;;;;5130161;22;21502;-87
2021/04/19 00:25:54;;;;;;;22.77;19.73;;;8.70;94.00;;;;;;5118812;28;20491;-86
2021/04/19 00:28:20;;;;;;;27.97;20.47;;;8.70;94.20;;;;;;5118108;28;20950;-87
2021/04/19 00:30:48;;;;;;;28.13;21.33;;;8.70;94.00;;;;;;5121246;28;20425;-86
2021/04/19 00:33:14;;;;;;;24.03;20.67;;;8.70;94.20;;;;;;5118259;28;20449;-86
2021/04/19 00:35:41;;;;;;;25.33;20.50;;;8.70;94.20;;;;;;5117304;28;20457;-86
2021/04/19 00:38:07;;;;;;;23.47;21.17;;;8.60;94.40;;;;;;5118786;28;20445;-86
2021/04/19 00:40:36;;;;;;;24.03;20.93;;;8.60;94.40;;;;;;5118423;28;20499;-88
2021/04/19 00:43:04;;;;;;;21.93;19.63;;;8.60;94.70;;;;;;5120827;28;20453;-87
2021/04/19 00:45:30;;;;;;;31.43;21.80;;;8.50;94.80;;;;;;5132101;28;20424;-86
2021/04/19 00:47:56;;;;;;;24.10;20.17;;;8.50;94.90;;;;;;5141404;28;21247;-85
2021/04/19 00:50:29;;;;;;;25.83;21.70;;;8.50;95.00;;;;;;5141444;28;20424;-86
2021/04/19 00:52:56;;;;;;;28.30;23.13;;;8.40;95.10;;;;;;5140868;27;20433;-86
2021/04/19 00:55:23;;;;;;;26.27;22.77;;;8.30;95.30;;;;;;5140644;27;20448;-85
2021/04/19 00:57:50;;;;;;;26.87;23.70;;;8.30;95.50;;;;;;5137773;27;20429;-87
2021/04/19 01:00:20;;;;;;;27.60;24.10;;;8.20;95.70;;;;;;5119581;28;20997;-87
2021/04/19 01:02:47;;;;;;;26.37;23.20;;;8.20;95.80;;;;;;5140349;27;20477;-87
2021/04/19 01:05:16;;;;;;;24.57;22.07;;;8.10;96.10;;;;;;5140500;27;20442;-86
2021/04/19 01:07:42;;;;;;;23.67;21.47;;;8.10;96.30;;;;;;5140069;27;20442;-86
2021/04/19 01:10:09;;;;;;;23.80;20.40;;;8.10;96.30;;;;;;5140166;27;20442;-86
2021/04/19 01:12:35;;;;;;;22.53;18.93;;;8.10;96.20;;;;;;5127784;27;20434;-88
2021/04/19 01:15:03;;;;;;;23.37;20.40;;;8.10;96.30;;;;;;5116083;28;20868;-87
2021/04/19 01:17:29;;;;;;;27.03;20.33;;;8.20;96.30;;;;;;5118159;28;20445;-87
2021/04/19 01:19:56;;;;;;;24.80;20.67;;;8.20;96.10;;;;;;5116915;28;20473;-87
2021/04/19 01:22:23;;;;;;;22.80;20.43;;;8.20;96.10;;;;;;5095868;28;20439;-87
2021/04/19 01:24:49;;;;;;;20.37;18.20;;;8.10;96.00;;;;;;5098785;28;20807;-88
2021/04/19 01:27:15;;;;;;;23.80;21.20;;;8.20;96.20;;;;;;5117047;28;20442;-88
2021/04/19 01:29:42;;;;;;;22.67;19.63;;;8.20;96.20;;;;;;5119027;28;20764;-87
2021/04/19 01:32:08;;;;;;;21.97;19.80;;;8.20;96.00;;;;;;5118612;28;20469;-87
2021/04/19 01:34:35;;;;;;;26.43;21.90;;;8.20;96.00;;;;;;5117617;28;20469;-88
2021/04/19 01:37:02;;;;;;;22.23;20.00;;;8.10;96.00;;;;;;5116520;28;20852;-86
2021/04/19 01:39:29;;;;;;;24.40;21.87;;;8.20;96.10;;;;;;5115439;28;20918;-87
2021/04/19 01:41:55;;;;;;;23.57;20.87;;;8.20;96.20;;;;;;5116062;28;20525;-88
2021/04/19 01:44:21;;;;;;;24.13;21.53;;;8.20;96.10;;;;;;5116523;28;20507;-88
2021/04/19 01:46:48;;;;;;;23.37;21.07;;;8.30;96.10;;;;;;5116040;28;20449;-88
2021/04/19 01:49:16;;;;;;;23.63;20.77;;;8.30;96.20;;;;;;5117006;28;20503;-87
2021/04/19 01:51:42;;;;;;;25.57;19.50;;;8.30;96.20;;;;;;5116732;28;20952;-87
2021/04/19 01:54:08;;;;;;;22.57;20.17;;;8.20;96.20;;;;;;5116299;28;20498;-87
2021/04/19 01:56:36;;;;;;;22.93;20.63;;;8.20;96.20;;;;;;5115533;28;20429;-87
2021/04/19 01:59:04;;;;;;;25.57;19.90;;;8.20;96.20;;;;;;5115448;28;20450;-86
2021/04/19 02:01:31;;;;;;;23.73;21.00;;;8.20;96.20;;;;;;5119402;28;21035;-86
2021/04/19 02:04:08;;;;;;;23.43;21.13;;;8.30;96.30;;;;;;5126112;27;20472;-86
2021/04/19 02:06:39;;;;;;;21.47;19.33;;;8.30;96.20;;;;;;5129909;28;20434;-87
2021/04/19 02:09:16;;;;;;;22.80;20.40;;;8.30;96.20;;;;;;5134023;28;20441;-86
2021/04/19 02:11:52;;;;;;;23.50;19.67;;;8.30;96.30;;;;;;5134173;27;20441;-87
2021/04/19 02:14:34;;;;;;;26.13;21.47;;;8.20;96.10;;;;;;5122496;28;20457;-86
2021/04/19 02:17:09;;;;;;;25.40;19.80;;;8.30;96.20;;;;;;5132752;28;20441;-87
2021/04/19 02:19:42;;;;;;;22.70;20.43;;;8.30;96.30;;;;;;5138099;28;20441;-86
2021/04/19 02:22:13;;;;;;;27.07;19.57;;;8.30;96.70;;;;;;5133491;28;20449;-86
2021/04/19 02:24:44;;;;;;;26.47;19.83;;;8.30;96.30;;;;;;5121706;28;20465;-87
2021/04/19 02:27:14;;;;;;;23.13;20.83;;;8.30;96.80;;;;;;5127941;28;20441;-87
2021/04/19 02:29:43;;;;;;;22.60;20.27;;;8.30;96.40;;;;;;5127598;28;20434;-88
2021/04/19 02:32:14;;;;;;;22.23;19.73;;;8.20;96.40;;;;;;5138544;28;20520;-87
2021/04/19 02:34:41;;;;;;;25.40;20.40;;;8.30;96.20;;;;;;5128531;28;20469;-88
2021/04/19 02:37:09;;;;;;;23.23;20.87;;;8.20;96.40;;;;;;5123965;28;20525;-86
2021/04/19 02:39:40;;;;;;;24.37;20.60;;;8.20;96.50;;;;;;5120966;28;20450;-87
2021/04/19 02:42:08;;;;;;;22.70;20.50;;;8.30;96.60;;;;;;5122740;28;20469;-88
2021/04/19 02:44:36;;;;;;;20.57;18.20;;;8.20;96.60;;;;;;5119937;28;20466;-87
2021/04/19 02:47:04;;;;;;;24.37;19.97;;;8.20;96.60;;;;;;5123311;28;20456;-87
2021/04/19 02:49:33;;;;;;;22.37;18.30;;;8.20;96.70;;;;;;5118996;28;20445;-87
2021/04/19 02:52:01;;;;;;;22.00;19.73;;;8.20;96.60;;;;;;5120117;28;20433;-86
2021/04/19 02:54:28;;;;;;;22.53;20.13;;;8.30;96.70;;;;;;5119226;28;20466;-86
2021/04/19 02:56:55;;;;;;;22.00;19.80;;;8.20;96.60;;;;;;5120842;28;20446;-87
2021/04/19 02:59:24;;;;;;;21.03;18.93;;;8.30;96.60;;;;;;5124549;28;20441;-88
2021/04/19 03:01:56;;;;;;;23.80;21.40;;;8.20;96.70;;;;;;5120487;28;20438;-88
2021/04/19 03:04:26;;;;;;;22.20;19.90;;;8.30;96.80;;;;;;5121925;28;20486;-86
2021/04/19 03:06:56;;;;;;;26.80;20.47;;;8.30;96.80;;;;;;5118869;28;20472;-87
2021/04/19 03:09:25;;;;;;;21.70;19.40;;;8.20;97.10;;;;;;5117545;28;20441;-87
2021/04/19 03:11:55;;;;;;;22.87;20.43;;;8.20;97.40;;;;;;5132691;28;20436;-86
2021/04/19 03:14:25;;;;;;;25.50;19.87;;;8.30;96.90;;;;;;5135754;28;20483;-85
2021/04/19 03:17:02;;;;;;;22.50;20.10;;;8.20;97.00;;;;;;5126433;28;20444;-88
2021/04/19 03:19:31;;;;;;;28.50;22.60;;;8.20;96.90;;;;;;5132230;28;20468;-87
2021/04/19 03:21:59;;;;;;;22.60;20.37;;;8.30;97.10;;;;;;5128796;28;20430;-87
2021/04/19 03:24:28;;;;;;;23.53;20.23;;;8.20;97.00;;;;;;5137927;28;20540;-85
2021/04/19 03:26:55;;;;;;;23.27;20.70;;;8.20;97.10;;;;;;5135889;28;20457;-86
2021/04/19 03:29:22;;;;;;;27.70;22.50;;;8.30;97.20;;;;;;5130070;28;20429;-87
2021/04/19 03:31:52;;;;;;;25.00;22.30;;;8.40;97.20;;;;;;5124799;28;20442;-87
2021/04/19 03:34:22;;;;;;;28.23;21.17;;;8.30;97.10;;;;;;5123648;28;20469;-86
2021/04/19 03:36:50;;;;;;;25.17;21.70;;;8.30;97.10;;;;;;5139509;28;20438;-87
2021/04/19 03:39:19;;;;;;;23.77;21.43;;;8.40;97.10;;;;;;5122967;28;20441;-87
2021/04/19 03:41:49;;;;;;;22.80;20.33;;;8.30;97.10;;;;;;5123849;28;20492;-86
2021/04/19 03:44:21;;;;;;;24.60;21.10;;;8.30;97.00;;;;;;5122208;28;21048;-88
2021/04/19 03:46:50;;;;;;;22.03;19.60;;;8.30;97.20;;;;;;5123187;28;20457;-87
2021/04/19 03:49:24;;;;;;;26.43;23.17;;;8.30;97.30;;;;;;5139491;28;20567;-87
2021/04/19 03:51:55;;;;;;;23.80;21.30;;;8.30;97.30;;;;;;5127293;28;20441;-88
2021/04/19 03:54:22;;;;;;;27.43;22.03;;;8.30;97.20;;;;;;5124433;28;21021;-88
2021/04/19 03:56:50;;;;;;;27.83;22.70;;;8.30;97.20;;;;;;5136672;27;20466;-86
2021/04/19 03:59:18;;;;;;;24.60;20.40;;;8.30;97.40;;;;;;5131312;28;20964;-87
2021/04/19 04:01:46;;;;;;;25.17;21.97;;;8.30;97.20;;;;;;5120799;28;20469;-87
2021/04/19 04:04:15;;;;;;;30.77;24.17;;;8.30;97.20;;;;;;5120902;28;20458;-87
2021/04/19 04:06:44;;;;;;;26.13;21.97;;;8.30;97.20;;;;;;5123196;28;20497;-86
2021/04/19 04:09:11;;;;;;;23.57;20.70;;;8.30;97.40;;;;;;5139150;27;20430;-86
2021/04/19 04:11:38;;;;;;;24.57;21.37;;;8.30;97.40;;;;;;5136484;28;20441;-86
2021/04/19 04:14:04;;;;;;;23.20;20.70;;;8.20;97.40;;;;;;5128219;28;21177;-86
2021/04/19 04:16:31;;;;;;;23.77;21.37;;;8.20;97.70;;;;;;5119730;28;20446;-88
2021/04/19 04:18:57;;;;;;;29.10;23.30;;;8.20;97.70;;;;;;5128900;28;20441;-87
2021/04/19 04:21:24;;;;;;;28.10;22.47;;;8.20;97.60;;;;;;5119194;28;20488;-89
2021/04/19 04:23:52;;;;;;;25.87;21.50;;;8.10;97.60;;;;;;5128133;28;20469;-86
2021/04/19 04:26:19;;;;;;;26.00;21.93;;;8.20;97.70;;;;;;5139755;28;20445;-86
2021/04/19 04:28:46;;;;;;;27.73;23.33;;;8.10;97.60;;;;;;5126755;28;20449;-87
2021/04/19 04:31:12;;;;;;;27.63;22.50;;;8.10;97.50;;;;;;5118249;28;20901;-87
2021/04/19 04:33:38;;;;;;;35.53;23.90;;;8.10;97.70;;;;;;5118480;28;20466;-88
2021/04/19 04:36:06;;;;;;;25.87;22.80;;;8.10;97.90;;;;;;5118410;28;20445;-85
2021/04/19 04:38:32;;;;;;;26.17;21.57;;;8.10;97.90;;;;;;5119054;28;20450;-87
2021/04/19 04:40:59;;;;;;;24.67;22.00;;;8.10;97.90;;;;;;5121488;28;20551;-87
2021/04/19 04:43:28;;;;;;;26.77;21.83;;;8.00;97.90;;;;;;5121242;28;20470;-87
2021/04/19 04:46:02;;;;;;;28.50;21.40;;;8.00;98.00;;;;;;5123940;28;20452;-88
2021/04/19 04:48:33;;;;;;;25.50;22.63;;;8.00;98.00;;;;;;5133960;28;20426;-87
2021/04/19 04:51:04;;;;;;;26.50;21.60;;;8.00;98.20;;;;;;5131335;28;20448;-88
2021/04/19 04:53:36;;;;;;;26.93;23.20;;;8.00;97.90;;;;;;5117020;28;20466;-87
2021/04/19 04:56:06;;;;;;;25.07;22.00;;;8.00;98.00;;;;;;5134422;28;20422;-87
2021/04/19 04:58:33;;;;;;;28.30;22.27;;;7.90;98.10;;;;;;5122445;28;20441;-88
2021/04/19 05:01:00;;;;;;;25.90;23.10;;;7.90;98.20;;;;;;5122675;28;20485;-88
2021/04/19 05:03:28;;;;;;;23.67;21.23;;;7.90;98.20;;;;;;5119711;28;20466;-87
2021/04/19 05:05:55;;;;;;;26.43;21.70;;;7.90;98.10;;;;;;5120499;28;20520;-87
2021/04/19 05:08:22;;;;;;;23.77;20.23;;;7.90;98.20;;;;;;5120415;28;20537;-88
2021/04/19 05:11:01;;;;;;;25.33;20.83;;;7.90;98.10;;;;;;5113980;28;20446;-89
2021/04/19 05:13:41;;;;;;;24.97;21.00;;;7.90;98.30;;;;;;5120233;28;20491;-87
2021/04/19 05:19:14;;;;;;;26.73;21.40;;;7.80;98.90;;;;;;5111828;28;20469;-89
2021/04/19 05:21:40;;;;;;;28.63;21.70;;;7.70;99.30;;;;;;5137540;28;20981;-87
2021/04/19 05:24:08;;;;;;;24.20;21.60;;;7.70;99.50;;;;;;5137492;28;20472;-88
2021/04/19 05:26:34;;;;;;;26.70;21.20;;;7.70;99.90;;;;;;5128093;28;20445;-87
2021/04/19 05:29:02;;;;;;;29.07;21.17;;;7.70;99.90;;;;;;5119248;28;20454;-88
2021/04/19 05:31:29;;;;;;;31.40;23.77;;;7.70;99.90;;;;;;5125668;28;20455;-88
2021/04/19 05:33:55;;;;;;;34.10;22.50;;;7.70;99.90;;;;;;5125768;28;21001;-88
2021/04/19 05:39:38;;;;;;;26.57;22.53;;;7.70;99.90;;;;;;5121397;28;20425;-85
2021/04/19 05:42:06;;;;;;;32.03;22.53;;;7.60;99.90;;;;;;5114944;28;20442;-86
2021/04/19 05:44:34;;;;;;;32.00;24.27;;;7.60;99.90;;;;;;5117814;28;20429;-83
2021/04/19 05:47:01;;;;;;;28.70;23.30;;;7.50;99.90;;;;;;5122632;28;20965;-85
2021/04/19 05:49:28;;;;;;;28.57;22.43;;;7.50;99.90;;;;;;5111907;28;20438;-85
2021/04/19 05:51:57;;;;;;;27.60;22.87;;;7.50;99.90;;;;;;5109655;28;20444;-85
2021/04/19 05:54:24;;;;;;;29.07;23.77;;;7.50;99.90;;;;;;5109240;28;20479;-84
2021/04/19 05:57:06;;;;;;;26.53;23.33;;;7.40;99.90;;;;;;5107368;28;20434;-85
2021/04/19 05:59:43;;;;;;;29.63;23.73;;;7.30;99.90;;;;;;5122575;28;20446;-84
2021/04/19 06:02:12;;;;;;;25.93;23.17;;;7.10;99.90;;;;;;5121665;28;20980;-85
2021/04/19 06:04:44;;;;;;;26.57;23.30;;;7.10;99.90;;;;;;5115510;28;20462;-86
2021/04/19 06:07:15;;;;;;;34.13;26.50;;;7.00;99.90;;;;;;5114835;28;20453;-84
2021/04/19 06:09:49;;;;;;;26.33;23.53;;;7.00;99.90;;;;;;5114176;28;20449;-85
2021/04/19 06:12:19;;;;;;;33.67;26.87;;;7.10;99.90;;;;;;5119468;28;20488;-84
2021/04/19 06:14:50;;;;;;;33.67;25.10;;;7.10;99.90;;;;;;5115304;28;20471;-84
2021/04/19 06:17:18;;;;;;;27.73;24.47;;;7.00;99.90;;;;;;5114523;28;20442;-87
2021/04/19 06:19:47;;;;;;;33.87;26.30;;;7.10;99.90;;;;;;5116588;28;20580;-86
2021/04/19 06:25:36;;;;;;;27.53;24.37;;;7.00;99.90;;;;;;5101296;28;20443;-85
2021/04/19 06:28:04;;;;;;;31.33;26.33;;;7.00;99.90;;;;;;5121070;28;20443;-86
2021/04/19 06:30:40;;;;;;;31.23;27.60;;;7.00;99.90;;;;;;5124122;28;20458;-86
2021/04/19 06:33:09;;;;;;;32.17;27.83;;;7.00;99.90;;;;;;5136902;28;20447;-86
2021/04/19 06:35:38;;;;;;;35.20;26.60;;;7.00;99.90;;;;;;5123426;28;20438;-86
2021/04/19 06:38:07;;;;;;;32.90;27.70;;;7.00;99.90;;;;;;5122310;28;20465;-84
2021/04/19 06:40:36;;;;;;;33.20;27.77;;;6.90;99.90;;;;;;5121561;28;20473;-86
2021/04/19 06:43:03;;;;;;;38.13;28.53;;;7.00;99.90;;;;;;5120420;28;20461;-85
2021/04/19 06:45:33;;;;;;;34.87;27.43;;;7.00;99.90;;;;;;5105102;28;20446;-86
2021/04/19 06:48:13;;;;;;;;;;;;;;;;;;;;;
2021/04/19 06:50:48;;;;;;;30.63;26.20;;;7.10;99.90;;;;;;5131055;28;20440;-85
2021/04/19 06:53:26;;;;;;;37.73;30.30;;;7.10;99.90;;;;;;5123787;28;20964;-86
2021/04/19 06:56:15;;;;;;;31.07;26.77;;;7.10;99.90;;;;;;5109213;28;20472;-86
2021/04/19 06:58:45;;;;;;;31.07;26.97;;;7.10;99.90;;;;;;5127295;28;20928;-86
2021/04/19 07:01:13;;;;;;;34.57;29.00;;;7.00;99.90;;;;;;5131750;28;20615;-86
2021/04/19 07:03:47;;;;;;;31.87;25.47;;;7.10;99.90;;;;;;5130356;28;20457;-85
2021/04/19 07:06:18;;;;;;;39.80;27.40;;;7.10;99.90;;;;;;5132223;28;20424;-87
2021/04/19 07:50:07;;;;;;;28.67;24.20;;;7.50;99.90;;;;;;4991540;28;20526;-86
2021/04/19 08:23:32;;;;;;;;;;;;;;;;;;;;;
2021/04/19 08:42:36;;;;;;;30.47;25.23;;;8.60;99.90;;;;;;5506874;22;20881;-85
2021/04/19 08:45:05;;;;;;;30.47;26.97;;;8.60;99.90;;;;;;5122076;28;20455;-85
2021/04/19 08:47:31;;;;;;;31.40;27.97;;;8.60;99.90;;;;;;5130695;28;20936;-85
2021/04/19 08:50:00;;;;;;;30.47;27.17;;;8.60;99.90;;;;;;5129095;28;20430;-85
2021/04/19 08:52:27;;;;;;;30.30;26.53;;;8.40;99.90;;;;;;5129613;27;20468;-85
2021/04/19 08:54:54;;;;;;;34.13;27.27;;;8.40;99.90;;;;;;5137525;27;20514;-85
2021/04/19 08:57:21;;;;;;;33.80;26.00;;;8.50;99.90;;;;;;5140723;27;20448;-86
2021/04/19 08:59:50;;;;;;;34.70;28.60;;;8.40;99.90;;;;;;5140334;27;20980;-86
2021/04/19 09:02:18;;;;;;;31.13;27.17;;;8.40;99.90;;;;;;5144210;27;20526;-87
2021/04/19 09:05:03;;;;;;;30.43;26.40;;;8.40;99.90;;;;;;5141427;27;20864;-87
2021/04/19 09:07:30;;;;;;;29.77;23.77;;;8.40;99.90;;;;;;5140340;27;20458;-86
2021/04/19 09:09:57;;;;;;;31.57;26.53;;;8.30;99.90;;;;;;5143074;27;20483;-86
2021/04/19 09:12:26;;;;;;;35.03;26.50;;;8.20;99.90;;;;;;5153040;27;20465;-85
2021/04/19 09:15:13;;;;;;;32.90;24.70;;;8.20;99.90;;;;;;5151338;27;20508;-86
2021/04/19 09:17:40;;;;;;;30.03;26.63;;;8.30;99.90;;;;;;5140793;27;20444;-86
2021/04/19 09:20:08;;;;;;;37.60;29.73;;;8.30;99.90;;;;;;5149807;27;20448;-86
2021/04/19 09:22:36;;;;;;;33.03;28.60;;;8.40;99.90;;;;;;5149118;27;20838;-86
2021/04/19 09:25:06;;;;;;;37.37;27.63;;;8.50;99.90;;;;;;5132385;27;20453;-85
2021/04/19 09:27:52;;;;;;;32.87;28.30;;;8.40;99.90;;;;;;5134869;27;20505;-86
2021/04/19 09:30:36;;;;;;;36.77;28.77;;;8.40;99.90;;;;;;5138085;27;20428;-86
2021/04/19 09:33:22;;;;;;;36.40;30.00;;;8.50;99.90;;;;;;5125074;27;20461;-85
2021/04/19 09:35:53;;;;;;;40.50;30.87;;;8.40;99.90;;;;;;5134271;27;20453;-87
2021/04/19 09:38:53;;;;;;;34.63;30.33;;;8.40;99.90;;;;;;5134480;27;20453;-85
2021/04/19 09:41:21;;;;;;;36.93;28.03;;;8.50;99.90;;;;;;5126195;27;20480;-85
2021/04/19 09:43:52;;;;;;;36.87;29.10;;;8.50;99.90;;;;;;5134263;27;20548;-87
2021/04/19 09:46:33;;;;;;;38.80;29.30;;;8.60;99.90;;;;;;5139376;27;20500;-85
2021/04/19 09:49:05;;;;;;;32.80;28.30;;;8.60;99.90;;;;;;5132281;27;20429;-86
2021/04/19 09:51:37;;;;;;;36.10;28.47;;;8.70;99.90;;;;;;5142711;27;20465;-85
2021/04/19 09:54:09;;;;;;;34.40;29.80;;;8.70;99.90;;;;;;5133726;27;20446;-86
2021/04/19 09:56:39;;;;;;;37.83;29.77;;;8.80;99.90;;;;;;5116630;27;20532;-86
2021/04/19 09:59:08;;;;;;;38.97;30.57;;;8.90;99.90;;;;;;5123357;27;20449;-87
2021/04/19 10:01:36;;;;;;;31.57;27.07;;;9.00;99.90;;;;;;5127547;27;20481;-88
2021/04/19 10:04:03;;;;;;;37.93;28.87;;;9.10;99.90;;;;;;5138169;27;20462;-87
2021/04/19 10:06:36;;;;;;;30.10;27.07;;;9.20;99.90;;;;;;5139616;27;20918;-86
2021/04/19 10:09:07;;;;;;;30.07;26.80;;;9.30;99.90;;;;;;5132364;27;20430;-86
2021/04/19 10:11:35;;;;;;;30.10;26.30;;;9.40;99.90;;;;;;5122307;27;20461;-85
2021/04/19 10:14:07;;;;;;;33.80;29.20;;;9.60;99.90;;;;;;5130401;27;20453;-87
2021/04/19 10:16:44;;;;;;;31.70;28.63;;;9.60;99.90;;;;;;5119624;28;20851;-86
2021/04/19 10:19:13;;;;;;;35.83;28.60;;;9.80;99.90;;;;;;5126532;27;20450;-86
2021/04/19 10:22:15;;;;;;;33.83;29.50;;;9.90;99.90;;;;;;5123584;27;20481;-87
2021/04/19 10:25:19;;;;;;;32.17;25.77;;;10.10;99.90;;;;;;5092425;27;20498;-86
2021/04/19 10:28:21;;;;;;;32.10;27.73;;;10.20;99.90;;;;;;5123971;27;20445;-85
2021/04/19 10:30:50;;;;;;;29.30;26.13;;;10.40;99.90;;;;;;5133603;27;20429;-86
2021/04/19 10:33:56;;;;;;;29.70;26.60;;;10.40;99.90;;;;;;5144007;27;20457;-86
2021/04/19 10:36:29;;;;;;;38.10;27.97;;;10.50;99.90;;;;;;5125364;27;20449;-85
2021/04/19 10:41:45;;;;;;;33.17;29.60;;;10.60;99.90;;;;;;5114189;28;20647;-86
2021/04/19 10:47:43;;;;;;;37.13;27.27;;;10.70;99.90;;;;;;5077443;28;20493;-87
2021/04/19 11:06:57;;;;;;;31.87;27.67;;;10.70;99.90;;;;;;5115402;28;20484;-85
2021/04/19 11:09:42;;;;;;;32.70;27.20;;;10.80;99.90;;;;;;5053451;28;20461;-85
2021/04/19 11:12:08;;;;;;;29.30;26.20;;;10.90;99.90;;;;;;5137685;22;20485;-86
2021/04/19 11:14:35;;;;;;;30.30;27.03;;;10.90;99.90;;;;;;5131201;28;20446;-88
2021/04/19 11:17:03;;;;;;;28.50;25.60;;;10.90;99.90;;;;;;5129259;28;20441;-88
2021/04/19 11:19:36;;;;;;;30.27;27.07;;;11.10;99.90;;;;;;5130848;28;20506;-88
2021/04/19 11:22:27;;;;;;;29.23;25.83;;;11.10;99.90;;;;;;5130349;28;20476;-88
2021/04/19 11:24:54;;;;;;;29.93;26.80;;;11.10;99.90;;;;;;5129317;28;20432;-88
2021/04/19 11:27:24;;;;;;;31.47;27.60;;;11.00;99.90;;;;;;5135804;28;20475;-88
2021/04/19 11:29:51;;;;;;;32.77;26.13;;;11.00;99.90;;;;;;5123581;28;20437;-88
2021/04/19 11:32:29;;;;;;;33.53;29.03;;;11.10;99.90;;;;;;5129611;28;20458;-88
2021/04/19 11:34:56;;;;;;;29.33;26.27;;;11.10;99.90;;;;;;5130727;28;20449;-88
2021/04/19 11:37:34;;;;;;;30.30;27.20;;;11.10;99.90;;;;;;5117893;28;20449;-88
2021/04/19 11:40:01;;;;;;;25.27;22.73;;;11.10;99.90;;;;;;5120117;28;20460;-88
2021/04/19 11:42:30;;;;;;;27.80;24.80;;;11.00;99.90;;;;;;5114111;28;20474;-88
2021/04/19 11:44:57;;;;;;;27.73;24.57;;;11.20;99.90;;;;;;5121152;28;20438;-88
2021/04/19 11:47:23;;;;;;;25.90;22.40;;;11.30;99.90;;;;;;5121482;28;20449;-88
2021/04/19 11:49:51;;;;;;;26.37;23.13;;;11.40;99.90;;;;;;5128938;27;20447;-87
2021/04/19 11:52:19;;;;;;;26.90;24.10;;;11.50;99.90;;;;;;5126626;28;20466;-88
2021/04/19 11:54:46;;;;;;;31.23;24.60;;;11.60;99.90;;;;;;5120588;28;20456;-88
2021/04/19 11:57:12;;;;;;;28.13;25.10;;;11.70;99.90;;;;;;5121652;28;20450;-88
2021/04/19 11:59:40;;;;;;;25.57;21.83;;;11.80;99.90;;;;;;5123747;28;20824;-89
2021/04/19 12:02:06;;;;;;;23.60;21.13;;;11.90;99.90;;;;;;5108912;28;20477;-89
2021/04/19 12:04:32;;;;;;;25.73;23.10;;;12.00;99.40;;;;;;5114583;28;20437;-87
2021/04/19 12:06:58;;;;;;;25.60;21.17;;;12.00;98.90;;;;;;5114001;28;20927;-88
2021/04/19 12:09:26;;;;;;;24.33;21.83;;;12.00;98.30;;;;;;5113931;28;20498;-89
2021/04/19 12:11:52;;;;;;;24.80;22.17;;;12.20;98.90;;;;;;5106866;28;20445;-89
2021/04/19 12:14:18;;;;;;;24.20;21.70;;;12.10;97.50;;;;;;5109266;28;20450;-89
2021/04/19 12:16:45;;;;;;;23.40;21.10;;;12.00;97.10;;;;;;5119414;28;20417;-86
2021/04/19 12:19:11;;;;;;;23.37;20.93;;;12.00;97.30;;;;;;5113593;28;20449;-88
2021/04/19 12:21:37;;;;;;;23.87;21.40;;;12.10;97.50;;;;;;5112702;28;20486;-88
2021/04/19 12:24:05;;;;;;;27.90;22.63;;;12.00;97.20;;;;;;5112969;28;20465;-88
2021/04/19 12:26:32;;;;;;;19.53;17.50;;;12.00;97.20;;;;;;5110086;28;20506;-88
2021/04/19 12:29:01;;;;;;;22.23;19.93;;;11.80;96.00;;;;;;5113112;28;20442;-86
2021/04/19 12:31:27;;;;;;;23.90;19.47;;;11.80;96.40;;;;;;5123238;28;20438;-88
2021/04/19 12:33:53;;;;;;;23.77;20.20;;;11.80;96.30;;;;;;5131041;28;20468;-89
2021/04/19 12:36:20;;;;;;;21.10;18.77;;;11.90;97.00;;;;;;5119350;28;20419;-89
2021/04/19 12:38:46;;;;;;;18.57;16.70;;;12.00;97.00;;;;;;5119476;28;20447;-87
2021/04/19 12:41:12;;;;;;;17.40;15.70;;;12.20;96.60;;;;;;5115779;28;20466;-89
2021/04/19 12:43:42;;;;;;;18.57;16.57;;;12.10;95.40;;;;;;5131366;28;20458;-89
2021/04/19 12:46:08;;;;;;;20.27;18.13;;;12.20;94.80;;;;;;5130783;28;20500;-88
2021/04/19 12:48:34;;;;;;;22.70;16.90;;;12.30;95.00;;;;;;5137310;28;20447;-89
2021/04/19 12:51:01;;;;;;;18.20;16.13;;;12.40;94.80;;;;;;5128878;28;20442;-88
2021/04/19 12:53:27;;;;;;;22.00;18.77;;;12.40;94.90;;;;;;5127213;28;20465;-87
2021/04/19 12:55:53;;;;;;;16.27;14.67;;;12.40;94.80;;;;;;5123135;28;20445;-87
2021/04/19 12:58:19;;;;;;;16.57;14.90;;;12.20;93.70;;;;;;5123241;28;20434;-88
2021/04/19 13:00:47;;;;;;;17.30;15.60;;;12.20;94.20;;;;;;5120595;28;20493;-87
2021/04/19 13:03:13;;;;;;;22.30;16.10;;;12.40;94.60;;;;;;5125586;28;20445;-86
2021/04/19 13:05:39;;;;;;;17.70;15.90;;;12.40;94.30;;;;;;5138609;27;20437;-86
2021/04/19 13:08:07;;;;;;;19.47;16.87;;;12.50;94.90;;;;;;5128105;28;20459;-88
2021/04/19 13:10:33;;;;;;;20.60;16.70;;;12.50;94.70;;;;;;5132277;28;20435;-86
2021/04/19 13:13:00;;;;;;;19.80;16.87;;;12.30;93.90;;;;;;5125495;28;20470;-88
2021/04/19 13:15:27;;;;;;;16.60;15.00;;;12.20;94.00;;;;;;5120989;28;20432;-86
2021/04/19 13:17:58;;;;;;;18.43;16.53;;;12.20;94.20;;;;;;5127527;28;20458;-88
2021/04/19 13:20:26;;;;;;;23.80;19.63;;;12.40;94.40;;;;;;5114345;28;20442;-89
2021/04/19 13:23:06;;;;;;;19.43;17.00;;;12.40;94.60;;;;;;5118793;28;20474;-86
2021/04/19 13:25:40;;;;;;;21.10;18.00;;;12.30;94.80;;;;;;5126035;28;20445;-87
2021/04/19 13:28:06;;;;;;;20.80;18.60;;;12.30;95.80;;;;;;5121776;28;20473;-88
2021/04/19 13:30:49;;;;;;;20.37;18.13;;;12.30;96.40;;;;;;5119656;28;20451;-89
2021/04/19 13:33:27;;;;;;;20.07;18.00;;;12.20;96.60;;;;;;5118672;28;20461;-89
2021/04/19 13:36:14;;;;;;;21.07;19.00;;;12.10;97.20;;;;;;5127195;28;20457;-90
2021/04/19 13:39:01;;;;;;;23.50;19.90;;;12.00;97.90;;;;;;5139450;28;20445;-89
2021/04/19 13:41:33;;;;;;;24.90;19.77;;;11.80;98.70;;;;;;5130905;27;20522;-89
2021/04/19 13:44:03;;;;;;;22.27;20.07;;;11.70;99.10;;;;;;5130967;28;20465;-87
2021/04/19 13:49:23;;;;;;;25.27;22.23;;;11.80;99.90;;;;;;5124055;28;20442;-89
2021/04/19 13:51:52;;;;;;;26.93;23.47;;;11.80;99.90;;;;;;5118908;28;20816;-93
2021/04/19 13:54:29;;;;;;;22.83;20.20;;;11.90;99.90;;;;;;5117423;28;20481;-89
2021/04/19 13:57:02;;;;;;;22.07;19.67;;;12.00;99.20;;;;;;5117746;28;20501;-88
2021/04/19 13:59:33;;;;;;;23.53;20.97;;;12.10;98.70;;;;;;5128770;28;20435;-86
2021/04/19 14:02:09;;;;;;;22.00;19.13;;;12.20;99.40;;;;;;5122182;28;20465;-88
2021/04/19 14:04:42;;;;;;;22.37;20.07;;;12.20;99.00;;;;;;5125326;28;20442;-89
2021/04/19 14:07:17;;;;;;;20.97;18.97;;;12.20;99.10;;;;;;5113369;28;20442;-89
2021/04/19 14:09:56;;;;;;;;;;;;;;;;;;;;;
2021/04/19 14:12:40;;;;;;;27.27;23.10;;;12.20;99.00;;;;;;5110581;28;20463;-90
2021/04/19 14:15:12;;;;;;;25.83;21.17;;;12.10;99.20;;;;;;5111619;28;20450;-88
2021/04/19 14:17:42;;;;;;;23.20;20.70;;;12.10;99.60;;;;;;5108907;28;20453;-90
2021/04/19 14:20:24;;;;;;;24.20;21.73;;;12.20;99.50;;;;;;5115890;27;20874;-87
2021/04/19 14:22:52;;;;;;;24.57;22.07;;;12.30;99.10;;;;;;5107310;28;20963;-89
2021/04/19 14:25:34;;;;;;;22.43;19.97;;;12.50;99.50;;;;;;5107289;28;20457;-90
2021/04/19 14:28:21;;;;;;;24.57;22.07;;;12.80;98.80;;;;;;5107374;28;20450;-90
2021/04/19 14:31:02;;;;;;;22.80;20.30;;;13.10;98.60;;;;;;5110242;28;20801;-88
2021/04/19 14:33:42;;;;;;;22.97;20.57;;;13.30;97.70;;;;;;5110144;28;20453;-89
2021/04/19 14:36:17;;;;;;;23.73;20.13;;;13.50;97.40;;;;;;5116653;28;20451;-88
2021/04/19 14:38:58;;;;;;;22.13;19.87;;;14.20;96.30;;;;;;5111165;28;20951;-89
2021/04/19 14:41:44;;;;;;;22.17;18.87;;;14.30;94.90;;;;;;5107213;28;20888;-89
2021/04/19 14:44:14;;;;;;;21.23;18.57;;;14.40;94.90;;;;;;5108159;28;20534;-88
2021/04/19 14:46:45;;;;;;;23.10;19.70;;;14.40;94.70;;;;;;5106555;28;20507;-88
2021/04/19 14:49:39;;;;;;;21.90;19.60;;;14.40;94.40;;;;;;5111612;28;21033;-88
2021/04/19 14:52:21;;;;;;;21.67;19.47;;;14.20;94.60;;;;;;5119089;28;20533;-89
2021/04/19 14:54:48;;;;;;;21.30;19.13;;;14.10;94.80;;;;;;5126506;28;20448;-88
2021/04/19 14:57:26;;;;;;;18.57;16.67;;;14.00;94.90;;;;;;5122113;28;20465;-84
2021/04/19 15:02:58;;;;;;;17.60;15.80;;;13.90;94.70;;;;;;5107216;28;20458;-89
2021/04/19 15:05:35;;;;;;;18.40;16.50;;;13.80;94.10;;;;;;5117653;28;20441;-87
2021/04/19 15:08:13;;;;;;;18.07;16.47;;;13.80;94.30;;;;;;5125250;27;20430;-87
2021/04/19 15:10:46;;;;;;;18.50;16.70;;;13.60;94.70;;;;;;5121107;28;20433;-89
2021/04/19 15:16:19;;;;;;;16.83;15.10;;;13.50;95.50;;;;;;5112989;28;20514;-89
2021/04/19 15:22:08;;;;;;;18.93;17.00;;;13.50;95.90;;;;;;5106780;28;20478;-87
2021/04/19 15:25:07;;;;;;;14.20;12.80;;;13.40;95.90;;;;;;5115790;28;20435;-87
2021/04/19 15:28:09;;;;;;;14.07;12.70;;;13.40;96.00;;;;;;5128184;27;20525;-89
2021/04/19 15:30:35;;;;;;;13.90;12.60;;;13.30;95.70;;;;;;5116654;28;20475;-87